Mount Pleasant, Florida
Current Conditions -  °F | °C
As of 12:55 AM on Sunday 23 Nov 2014 (Local Time) from K2J9 Reporting Station
Overcast Overcast  
Wind Chill: 63°   Ceiling: 1900
Heat Index: 63°   Visibility: 4mi
Dew Point: 63°   Wind: 5mph
Humidity: 100%   Direction: 90°E
Pressure: 30.07"   Gusts: NA
Location:  30.66°N, 84.69°W
Report Text: K2J9 230555Z AUTO 09004KT 4SM SCT004 BKN019 OVC032 17/17 A3007 RMK AO1 P0010
Loading
Personal Weather Stations






























Interactive Weather Map New forecast layout! Learn more

10-Day Weather Forecast

Advertisements
Track Severe Weather on mobile